Time;durP1;ratioP1;P1;durP2;ratioP2;P2;SDS_P1;SDS_P2;PMS_P1;PMS_P2;Temp;Humidity;BMP_temperature;BMP_pressure;BME280_temperature;BME280_humidity;BME280_pressure;Samples;Min_cycle;Max_cycle;Signal;HPM_P1;HPM_P2
2023/03/06 00:00:14;;;;;;;6.07;3.47;;;2.90;84.00;;;;;;5017784;28;20090;-75
2023/03/06 00:02:40;;;;;;;5.00;2.45;;;2.90;84.10;;;;;;5018609;28;20033;-77
2023/03/06 00:05:06;;;;;;;5.15;3.03;;;2.90;84.10;;;;;;5015685;28;20022;-76
2023/03/06 00:07:31;;;;;;;3.30;2.22;;;2.90;83.90;;;;;;5002239;28;20022;-75
2023/03/06 00:09:57;;;;;;;4.57;2.95;;;2.90;83.80;;;;;;4996474;28;20033;-75
2023/03/06 00:12:22;;;;;;;4.65;2.55;;;3.00;83.70;;;;;;4995854;28;20490;-75
2023/03/06 00:14:48;;;;;;;7.45;3.10;;;3.00;83.70;;;;;;4994617;28;20058;-75
2023/03/06 00:17:14;;;;;;;5.63;2.75;;;2.90;83.80;;;;;;4996297;28;20022;-76
2023/03/06 00:19:40;;;;;;;8.43;4.22;;;2.90;83.80;;;;;;5013402;28;20064;-75
2023/03/06 00:22:05;;;;;;;4.63;2.80;;;2.90;84.00;;;;;;5015358;28;20116;-76
2023/03/06 00:24:31;;;;;;;5.47;3.10;;;2.90;84.30;;;;;;5017205;28;20021;-76
2023/03/06 00:26:57;;;;;;;5.97;2.95;;;2.90;84.50;;;;;;5011672;28;20108;-75
2023/03/06 00:29:22;;;;;;;4.82;2.42;;;2.90;84.50;;;;;;4995339;28;20038;-75
2023/03/06 00:31:48;;;;;;;5.32;2.72;;;2.90;84.40;;;;;;4995279;28;20019;-75
2023/03/06 00:34:14;;;;;;;5.13;2.88;;;2.90;84.20;;;;;;4994945;28;20339;-76
2023/03/06 00:36:40;;;;;;;6.78;2.92;;;2.90;84.00;;;;;;4994938;28;20034;-76
2023/03/06 00:39:06;;;;;;;8.05;3.63;;;2.90;84.00;;;;;;5015208;28;20040;-76
2023/03/06 00:41:32;;;;;;;8.48;3.80;;;2.90;84.00;;;;;;5014636;28;20059;-76
2023/03/06 00:43:57;;;;;;;6.60;3.53;;;2.80;84.20;;;;;;5014344;28;20026;-77
2023/03/06 00:46:23;;;;;;;5.75;3.63;;;2.80;84.30;;;;;;5013735;28;20088;-76
2023/03/06 00:48:48;;;;;;;5.97;3.08;;;2.80;84.50;;;;;;5010596;28;20026;-76
2023/03/06 00:51:16;;;;;;;5.63;3.00;;;2.80;84.70;;;;;;4994521;28;20025;-76
2023/03/06 00:53:41;;;;;;;6.70;2.63;;;2.90;85.00;;;;;;5010032;28;20026;-75
2023/03/06 00:56:08;;;;;;;6.13;3.33;;;2.90;85.20;;;;;;5009216;28;20034;-76
2023/03/06 00:58:33;;;;;;;7.30;3.70;;;2.90;85.10;;;;;;5002747;28;20021;-75
2023/03/06 01:00:59;;;;;;;5.65;3.22;;;2.90;85.30;;;;;;5015313;28;20029;-76
2023/03/06 01:03:25;;;;;;;7.20;4.82;;;2.90;85.70;;;;;;5017339;28;20072;-75
2023/03/06 01:05:50;;;;;;;5.60;3.22;;;2.90;85.70;;;;;;5013289;28;20065;-76
2023/03/06 01:08:16;;;;;;;5.20;3.15;;;2.90;85.60;;;;;;5011870;28;21089;-76
2023/03/06 01:10:41;;;;;;;6.60;3.70;;;3.00;85.70;;;;;;4994575;28;20066;-76
2023/03/06 01:13:07;;;;;;;5.25;3.00;;;3.00;85.60;;;;;;4996790;28;20110;-75
2023/03/06 01:15:33;;;;;;;4.90;2.60;;;3.00;85.50;;;;;;4994798;28;20038;-76
2023/03/06 01:17:59;;;;;;;4.57;2.70;;;3.00;85.30;;;;;;5003361;28;20042;-76
2023/03/06 01:20:24;;;;;;;6.88;3.17;;;3.00;85.30;;;;;;5024228;28;20061;-76
2023/03/06 01:22:50;;;;;;;6.57;3.15;;;3.10;85.00;;;;;;5014839;28;20049;-76
2023/03/06 01:25:16;;;;;;;3.90;2.33;;;3.00;84.80;;;;;;5014174;28;20018;-76
2023/03/06 01:27:42;;;;;;;5.93;3.03;;;3.10;85.00;;;;;;5016222;28;20421;-76
2023/03/06 01:30:08;;;;;;;7.15;3.90;;;3.00;84.80;;;;;;5009974;28;20026;-75
2023/03/06 01:32:34;;;;;;;5.78;3.38;;;3.00;84.70;;;;;;5002212;28;20045;-75
2023/03/06 01:35:00;;;;;;;5.15;2.80;;;3.00;84.70;;;;;;4994235;28;20038;-75
2023/03/06 01:37:25;;;;;;;5.22;3.00;;;3.00;84.70;;;;;;5003450;28;20022;-75
2023/03/06 01:39:51;;;;;;;4.82;2.95;;;3.00;84.80;;;;;;4999609;28;20378;-76
2023/03/06 01:42:17;;;;;;;5.55;2.72;;;3.00;84.80;;;;;;4998831;28;20034;-76
2023/03/06 01:45:23;;;;;;;4.13;2.08;;;3.00;84.80;;;;;;5001307;28;20031;-75
2023/03/06 01:47:49;;;;;;;3.90;2.58;;;3.00;84.80;;;;;;4971949;28;20050;-75
2023/03/06 01:50:15;;;;;;;5.15;2.50;;;3.00;84.90;;;;;;4969154;28;20026;-75
2023/03/06 01:52:52;;;;;;;4.05;2.28;;;3.00;85.00;;;;;;4996780;28;20046;-76
2023/03/06 01:55:44;;;;;;;3.40;2.00;;;3.00;85.00;;;;;;5017251;28;20021;-75
2023/03/06 01:58:12;;;;;;;5.13;2.85;;;3.00;85.30;;;;;;5015689;28;20037;-75
2023/03/06 02:00:38;;;;;;;7.10;3.65;;;2.90;85.60;;;;;;5006044;28;20031;-75
2023/03/06 02:03:14;;;;;;;5.68;3.00;;;2.90;86.00;;;;;;4977155;28;20061;-75
2023/03/06 02:05:41;;;;;;;4.55;2.83;;;2.90;86.30;;;;;;4978964;28;20459;-77
2023/03/06 02:08:09;;;;;;;4.60;2.50;;;2.90;86.50;;;;;;4978935;28;20174;-75
2023/03/06 02:10:35;;;;;;;4.15;2.47;;;2.80;86.50;;;;;;4987130;28;20017;-76
2023/03/06 02:13:01;;;;;;;5.18;3.03;;;2.80;86.60;;;;;;5018869;28;20117;-76
2023/03/06 02:15:28;;;;;;;4.22;2.15;;;2.80;86.60;;;;;;5017259;28;20033;-76
2023/03/06 02:17:54;;;;;;;4.43;2.47;;;2.80;86.80;;;;;;5013061;28;20053;-76
2023/03/06 02:20:35;;;;;;;3.75;2.40;;;2.90;87.10;;;;;;5012542;28;20104;-76
2023/03/06 02:23:43;;;;;;;4.30;2.85;;;2.90;87.20;;;;;;4980835;28;20146;-75
2023/03/06 02:26:10;;;;;;;2.95;1.60;;;2.90;87.00;;;;;;4976742;28;20023;-75
2023/03/06 02:28:35;;;;;;;3.42;1.92;;;2.90;86.90;;;;;;4978555;28;20353;-75
2023/03/06 02:31:01;;;;;;;3.45;2.05;;;2.90;86.90;;;;;;4982617;28;20030;-74
2023/03/06 02:33:28;;;;;;;2.90;1.77;;;2.80;86.90;;;;;;5017179;28;20022;-76
2023/03/06 02:36:02;;;;;;;2.78;1.70;;;2.80;86.90;;;;;;5015681;28;20356;-75
2023/03/06 02:38:35;;;;;;;4.22;2.05;;;2.80;87.10;;;;;;5017525;28;20026;-76
2023/03/06 02:41:05;;;;;;;2.17;1.50;;;2.80;87.20;;;;;;5017078;28;20101;-76
2023/03/06 02:43:35;;;;;;;3.08;1.95;;;2.80;87.30;;;;;;4998008;28;20402;-75
2023/03/06 02:46:01;;;;;;;3.83;2.33;;;2.80;87.40;;;;;;4998378;28;20045;-76
2023/03/06 02:48:26;;;;;;;3.85;2.53;;;2.80;87.30;;;;;;5005546;28;20387;-75
2023/03/06 02:50:52;;;;;;;2.95;1.95;;;2.70;87.40;;;;;;5009163;28;20026;-76
2023/03/06 02:53:19;;;;;;;3.22;2.00;;;2.70;87.60;;;;;;5005462;28;20551;-76
2023/03/06 02:55:45;;;;;;;3.20;2.00;;;2.80;87.70;;;;;;5019848;28;20079;-76
2023/03/06 02:58:11;;;;;;;2.97;2.05;;;2.80;87.80;;;;;;5016673;28;20447;-75
2023/03/06 03:00:37;;;;;;;4.70;1.80;;;2.80;87.70;;;;;;5016390;28;20041;-76
2023/03/06 03:03:04;;;;;;;3.42;1.45;;;2.80;87.50;;;;;;5019536;28;20041;-76
2023/03/06 03:05:30;;;;;;;1.70;1.35;;;2.80;87.50;;;;;;5017204;28;20096;-77
2023/03/06 03:07:55;;;;;;;2.95;1.75;;;2.80;87.50;;;;;;5017274;28;20014;-76
2023/03/06 03:10:21;;;;;;;2.58;1.38;;;2.70;87.40;;;;;;5018784;28;20026;-76
2023/03/06 03:12:47;;;;;;;2.80;1.80;;;2.80;87.40;;;;;;5003623;28;20030;-76
2023/03/06 03:15:12;;;;;;;3.22;1.40;;;2.70;87.50;;;;;;5016896;28;20050;-76
2023/03/06 03:17:39;;;;;;;2.58;1.55;;;2.80;87.40;;;;;;5025837;28;20032;-76
2023/03/06 03:20:08;;;;;;;2.20;1.50;;;2.80;87.40;;;;;;5025293;28;20022;-75
2023/03/06 03:22:34;;;;;;;2.38;1.42;;;2.80;87.40;;;;;;5012947;28;20041;-75
2023/03/06 03:24:59;;;;;;;3.30;1.75;;;2.80;87.30;;;;;;5006598;28;20030;-75
2023/03/06 03:27:25;;;;;;;2.67;1.70;;;2.80;87.20;;;;;;5008161;28;20045;-75
2023/03/06 03:29:51;;;;;;;2.30;1.50;;;2.80;87.20;;;;;;5004211;28;20038;-77
2023/03/06 03:32:16;;;;;;;1.65;1.33;;;2.80;87.20;;;;;;5023081;28;20064;-75
2023/03/06 03:34:42;;;;;;;2.05;1.40;;;2.80;87.20;;;;;;5026468;28;20022;-76
2023/03/06 03:37:09;;;;;;;3.05;1.80;;;2.80;87.30;;;;;;5016852;28;20046;-75
2023/03/06 03:39:34;;;;;;;2.50;1.50;;;2.70;87.40;;;;;;5016927;28;20030;-76
2023/03/06 03:42:00;;;;;;;3.72;1.73;;;2.70;87.50;;;;;;5016966;28;20034;-76
2023/03/06 03:44:26;;;;;;;3.10;1.88;;;2.70;87.60;;;;;;5036284;28;20017;-75
2023/03/06 03:46:51;;;;;;;3.30;1.77;;;2.70;87.60;;;;;;5031828;28;20042;-76
2023/03/06 03:49:17;;;;;;;3.35;2.17;;;2.70;87.80;;;;;;5013040;28;20034;-75
2023/03/06 03:51:43;;;;;;;3.67;2.63;;;2.60;87.80;;;;;;5000088;28;20076;-76
2023/03/06 03:54:09;;;;;;;3.50;1.70;;;2.70;88.00;;;;;;4996673;28;20088;-75
2023/03/06 03:56:35;;;;;;;3.35;2.15;;;2.60;88.00;;;;;;4993811;28;20030;-75
2023/03/06 03:59:01;;;;;;;5.13;2.47;;;2.60;88.20;;;;;;4995801;28;20088;-75
2023/03/06 04:01:27;;;;;;;3.88;1.95;;;2.60;88.30;;;;;;4998080;28;20034;-76
2023/03/06 04:03:53;;;;;;;4.82;2.47;;;2.60;88.30;;;;;;4995960;28;20387;-76
2023/03/06 04:06:19;;;;;;;6.15;3.03;;;2.60;88.30;;;;;;4994975;28;20026;-76
2023/03/06 04:08:44;;;;;;;4.43;2.53;;;2.60;88.30;;;;;;4995554;28;20128;-76
2023/03/06 04:11:10;;;;;;;6.45;3.78;;;2.60;88.20;;;;;;5010795;28;20034;-75
2023/03/06 04:13:36;;;;;;;5.18;3.17;;;2.60;88.00;;;;;;5003935;28;20029;-76
2023/03/06 04:16:01;;;;;;;6.03;3.35;;;2.60;87.90;;;;;;5015716;28;20022;-75
2023/03/06 04:18:27;;;;;;;5.43;3.17;;;2.60;88.00;;;;;;5006970;28;20019;-75
2023/03/06 04:20:53;;;;;;;4.10;2.47;;;2.60;88.10;;;;;;4998374;28;20375;-75
2023/03/06 04:23:21;;;;;;;5.35;3.15;;;2.60;88.10;;;;;;4995586;28;20030;-76
2023/03/06 04:25:47;;;;;;;4.95;2.78;;;2.60;88.30;;;;;;5014020;28;20467;-76
2023/03/06 04:28:13;;;;;;;5.25;2.72;;;2.60;88.50;;;;;;5015338;28;20038;-76
2023/03/06 04:30:39;;;;;;;4.60;2.70;;;2.60;88.90;;;;;;5015510;28;20026;-75
2023/03/06 04:33:05;;;;;;;4.10;2.40;;;2.60;89.30;;;;;;5015666;28;20033;-76
2023/03/06 04:35:31;;;;;;;5.15;2.75;;;2.60;89.70;;;;;;5014847;28;20187;-75
2023/03/06 04:37:57;;;;;;;4.20;2.42;;;2.60;89.80;;;;;;5017961;28;20022;-76
2023/03/06 04:40:27;;;;;;;3.80;2.13;;;2.60;90.00;;;;;;5014464;28;20026;-76
2023/03/06 04:42:53;;;;;;;4.15;2.53;;;2.60;90.30;;;;;;5029645;28;20026;-75
2023/03/06 04:45:19;;;;;;;5.25;2.60;;;2.60;90.10;;;;;;5014314;28;20025;-75
2023/03/06 04:47:45;;;;;;;3.90;2.13;;;2.60;90.10;;;;;;5011137;28;20033;-74
2023/03/06 04:50:11;;;;;;;3.83;2.15;;;2.60;90.10;;;;;;5022568;28;20025;-76
2023/03/06 04:52:39;;;;;;;3.28;1.90;;;2.60;90.20;;;;;;5014696;28;20022;-75
2023/03/06 04:55:07;;;;;;;3.38;2.20;;;2.70;90.10;;;;;;5015574;28;20116;-75
2023/03/06 04:57:37;;;;;;;4.30;2.67;;;2.60;90.20;;;;;;5015349;28;20022;-76
2023/03/06 05:00:10;;;;;;;6.40;2.45;;;2.60;90.20;;;;;;5015745;28;20102;-75
2023/03/06 05:02:36;;;;;;;4.85;2.60;;;2.60;90.10;;;;;;5030717;28;20033;-75
2023/03/06 05:05:03;;;;;;;4.95;2.78;;;2.60;90.20;;;;;;5010578;28;20026;-75
2023/03/06 05:07:29;;;;;;;5.57;3.10;;;2.60;90.10;;;;;;4994828;28;20081;-77
2023/03/06 05:09:55;;;;;;;4.55;2.55;;;2.60;90.00;;;;;;4995179;28;20393;-76
2023/03/06 05:12:21;;;;;;;7.85;3.80;;;2.60;90.00;;;;;;4994373;28;20041;-76
2023/03/06 05:14:46;;;;;;;6.60;3.83;;;2.50;89.70;;;;;;4994735;28;20153;-76
2023/03/06 05:17:12;;;;;;;6.90;3.70;;;2.50;89.50;;;;;;4999348;28;20033;-75
2023/03/06 05:19:38;;;;;;;8.18;4.25;;;2.50;89.40;;;;;;5006183;28;20032;-75
2023/03/06 05:22:03;;;;;;;8.20;4.15;;;2.50;89.10;;;;;;5015049;28;20037;-75
2023/03/06 05:24:29;;;;;;;6.57;3.50;;;2.50;88.90;;;;;;5016343;28;20456;-76
2023/03/06 05:26:55;;;;;;;8.13;4.13;;;2.50;88.70;;;;;;5013400;28;20118;-75
2023/03/06 05:29:20;;;;;;;6.70;3.95;;;2.50;88.60;;;;;;5013699;28;20042;-75
2023/03/06 05:31:46;;;;;;;8.05;4.03;;;2.50;88.50;;;;;;5014736;28;20101;-76
2023/03/06 05:34:15;;;;;;;6.13;3.30;;;2.50;88.50;;;;;;5014113;28;20026;-76
2023/03/06 05:36:42;;;;;;;6.25;3.05;;;2.60;88.60;;;;;;5013875;28;20062;-76
2023/03/06 05:39:07;;;;;;;5.38;2.70;;;2.60;89.00;;;;;;5014748;28;20099;-75
2023/03/06 05:41:33;;;;;;;7.53;2.85;;;2.70;89.40;;;;;;5013508;28;20443;-76
2023/03/06 05:43:59;;;;;;;4.97;2.50;;;2.70;89.70;;;;;;5014975;28;20028;-76
2023/03/06 05:46:25;;;;;;;4.90;2.40;;;2.80;89.80;;;;;;5012064;28;20052;-76
2023/03/06 05:49:20;;;;;;;4.85;2.30;;;2.80;89.80;;;;;;5016822;28;20050;-77
2023/03/06 05:51:46;;;;;;;3.35;2.00;;;2.80;89.90;;;;;;5014214;28;20101;-75
2023/03/06 05:54:14;;;;;;;2.83;1.63;;;2.80;90.00;;;;;;5014512;28;20089;-76
2023/03/06 05:56:40;;;;;;;3.03;1.67;;;2.80;90.00;;;;;;5016296;28;20036;-76
2023/03/06 05:59:05;;;;;;;4.57;2.50;;;2.80;90.10;;;;;;5019209;28;20104;-75
2023/03/06 06:01:31;;;;;;;3.90;2.10;;;2.70;90.10;;;;;;5019718;28;20080;-75
2023/03/06 06:03:57;;;;;;;3.70;2.42;;;2.80;90.10;;;;;;5020488;28;20058;-77
2023/03/06 06:06:22;;;;;;;3.25;1.67;;;2.80;90.10;;;;;;5022317;28;20057;-77
2023/03/06 06:08:48;;;;;;;3.97;2.35;;;2.80;90.10;;;;;;5004072;28;20106;-75
2023/03/06 06:11:14;;;;;;;3.13;1.80;;;2.80;90.10;;;;;;5016325;28;20109;-75
2023/03/06 06:13:41;;;;;;;4.45;2.10;;;2.90;90.10;;;;;;5000701;28;20042;-76
2023/03/06 06:16:10;;;;;;;3.70;2.22;;;2.90;90.00;;;;;;5015816;28;20064;-75
2023/03/06 06:18:36;;;;;;;3.25;2.15;;;3.00;89.90;;;;;;5006837;28;20117;-75
2023/03/06 06:21:07;;;;;;;3.80;2.17;;;2.90;89.80;;;;;;4998536;28;20038;-75
2023/03/06 06:23:33;;;;;;;4.10;2.85;;;3.00;89.90;;;;;;5016870;28;20056;-75
2023/03/06 06:26:04;;;;;;;6.35;3.42;;;3.00;89.70;;;;;;5017890;28;20027;-76
2023/03/06 06:28:30;;;;;;;7.30;3.72;;;3.00;89.40;;;;;;5008817;28;20030;-76
2023/03/06 06:30:56;;;;;;;5.72;3.10;;;3.00;89.20;;;;;;5001085;28;20023;-75
2023/03/06 06:33:22;;;;;;;7.55;4.15;;;3.10;88.90;;;;;;4998633;28;20111;-75
2023/03/06 06:35:48;;;;;;;8.25;4.60;;;3.10;88.50;;;;;;4998633;28;20399;-76
2023/03/06 06:38:14;;;;;;;7.45;4.32;;;3.10;88.40;;;;;;4999298;28;20391;-77
2023/03/06 06:40:39;;;;;;;11.50;4.35;;;3.20;88.40;;;;;;5001427;28;20014;-76
2023/03/06 06:43:05;;;;;;;6.35;3.63;;;3.20;88.40;;;;;;5013729;28;20126;-75
2023/03/06 06:45:31;;;;;;;7.70;4.25;;;3.20;88.00;;;;;;4996751;28;20033;-76
2023/03/06 06:47:56;;;;;;;8.50;4.00;;;3.20;87.80;;;;;;4998074;28;20027;-75
2023/03/06 06:50:22;;;;;;;8.68;4.20;;;3.30;87.50;;;;;;5006480;28;20022;-75
2023/03/06 06:52:48;;;;;;;6.75;3.92;;;3.30;87.40;;;;;;5018058;28;20018;-75
2023/03/06 06:55:14;;;;;;;5.93;3.65;;;3.30;87.40;;;;;;5016836;28;20040;-76
2023/03/06 06:57:41;;;;;;;7.15;4.38;;;3.40;87.40;;;;;;5017666;28;20152;-75
2023/03/06 07:00:07;;;;;;;6.95;3.90;;;3.50;87.20;;;;;;5015296;28;20037;-76
2023/03/06 07:02:33;;;;;;;5.03;3.40;;;3.50;86.90;;;;;;5032269;28;20046;-74
2023/03/06 07:04:59;;;;;;;6.70;3.67;;;3.60;86.40;;;;;;5020109;28;20025;-76
2023/03/06 07:07:25;;;;;;;9.27;4.72;;;3.60;86.00;;;;;;5017278;28;20089;-75
2023/03/06 07:09:50;;;;;;;10.73;5.57;;;3.60;85.50;;;;;;5006509;28;20042;-75
2023/03/06 07:12:16;;;;;;;10.70;5.13;;;3.60;84.60;;;;;;5011051;28;20049;-76
2023/03/06 07:14:42;;;;;;;8.68;4.55;;;3.60;84.20;;;;;;5016843;28;20034;-75
2023/03/06 07:17:08;;;;;;;9.10;5.10;;;3.70;83.70;;;;;;5016607;28;20026;-75
2023/03/06 07:19:34;;;;;;;10.15;5.72;;;3.80;83.30;;;;;;5006673;28;20030;-75
2023/03/06 07:22:00;;;;;;;10.00;5.97;;;3.80;82.70;;;;;;5018531;28;20034;-76
2023/03/06 07:24:27;;;;;;;11.70;6.13;;;3.80;82.00;;;;;;5017104;28;20088;-76
2023/03/06 07:26:52;;;;;;;10.93;5.20;;;3.90;81.70;;;;;;5016900;28;20033;-76
2023/03/06 07:29:18;;;;;;;9.35;4.88;;;4.00;81.60;;;;;;5019830;28;20126;-75
2023/03/06 07:31:44;;;;;;;7.78;4.43;;;4.20;81.70;;;;;;5016425;28;20022;-76
2023/03/06 07:34:13;;;;;;;10.25;5.30;;;4.30;80.70;;;;;;5016123;28;20718;-76
2023/03/06 07:36:39;;;;;;;8.85;5.13;;;4.30;80.30;;;;;;4998385;28;20431;-76
2023/03/06 07:39:08;;;;;;;10.85;5.05;;;4.30;80.10;;;;;;4998416;28;20034;-75
2023/03/06 07:41:35;;;;;;;8.95;4.65;;;4.30;80.10;;;;;;4996605;28;20038;-76
2023/03/06 07:44:01;;;;;;;7.47;4.03;;;4.40;80.00;;;;;;4996699;28;20122;-76
2023/03/06 07:46:27;;;;;;;7.13;3.92;;;4.40;79.60;;;;;;4998168;28;20042;-76
2023/03/06 07:48:53;;;;;;;10.35;5.03;;;4.40;79.60;;;;;;5007100;28;20017;-75
2023/03/06 07:51:20;;;;;;;13.68;5.78;;;4.40;79.50;;;;;;5003467;28;20110;-75
2023/03/06 07:53:48;;;;;;;10.85;5.25;;;4.40;79.40;;;;;;4999900;28;20564;-75
2023/03/06 07:56:14;;;;;;;8.77;5.10;;;4.40;79.40;;;;;;4996986;28;20023;-75
2023/03/06 07:58:43;;;;;;;8.13;5.10;;;4.50;79.50;;;;;;4997795;28;20155;-75
2023/03/06 08:01:13;;;;;;;7.65;4.45;;;4.60;79.30;;;;;;4997586;28;20379;-74
2023/03/06 08:03:39;;;;;;;9.20;4.95;;;4.70;79.00;;;;;;4998163;28;20065;-75
2023/03/06 08:06:11;;;;;;;10.02;4.93;;;4.70;78.80;;;;;;5016124;28;20052;-75
2023/03/06 08:08:38;;;;;;;12.50;5.85;;;4.70;78.70;;;;;;5016889;28;20037;-75
2023/03/06 08:11:08;;;;;;;9.68;5.80;;;4.70;79.30;;;;;;5018922;28;20040;-76
2023/03/06 08:13:35;;;;;;;12.55;6.18;;;4.70;78.40;;;;;;5017148;28;20467;-75
2023/03/06 08:16:01;;;;;;;9.55;5.22;;;4.70;78.70;;;;;;5018784;28;20117;-75
2023/03/06 08:18:28;;;;;;;10.85;5.15;;;4.70;78.80;;;;;;5030186;28;20395;-76
2023/03/06 08:21:24;;;;;;;8.25;4.68;;;4.80;78.70;;;;;;5016193;28;20084;-76
2023/03/06 08:23:50;;;;;;;11.45;5.68;;;4.80;79.00;;;;;;4982770;28;20458;-75
2023/03/06 08:26:27;;;;;;;15.40;7.80;;;4.90;78.90;;;;;;5017388;28;20087;-75
2023/03/06 08:28:56;;;;;;;15.25;8.02;;;4.90;78.50;;;;;;5016386;28;20021;-75
2023/03/06 08:31:37;;;;;;;12.98;7.47;;;4.90;79.00;;;;;;5017935;28;20565;-75
2023/03/06 08:34:06;;;;;;;13.73;7.07;;;5.00;79.30;;;;;;5017892;28;20113;-75
2023/03/06 08:36:31;;;;;;;12.65;7.28;;;5.00;79.50;;;;;;5022082;28;20022;-75
2023/03/06 08:38:58;;;;;;;12.35;6.55;;;5.00;79.70;;;;;;5020915;28;20084;-76
2023/03/06 08:41:24;;;;;;;12.82;6.30;;;5.00;80.30;;;;;;5021730;28;20044;-75
2023/03/06 08:43:51;;;;;;;14.02;6.97;;;5.10;80.30;;;;;;5017631;28;20382;-76
2023/03/06 08:46:17;;;;;;;14.45;8.15;;;5.00;80.40;;;;;;5018632;28;20050;-75
2023/03/06 08:48:46;;;;;;;16.33;8.75;;;5.10;80.60;;;;;;5014844;28;20036;-75
2023/03/06 08:51:12;;;;;;;16.33;7.80;;;5.20;80.30;;;;;;5004418;28;20018;-77
2023/03/06 08:53:38;;;;;;;13.93;7.57;;;5.30;80.70;;;;;;5012000;28;20041;-76
2023/03/06 08:56:04;;;;;;;12.73;6.85;;;5.40;80.60;;;;;;4996272;28;20026;-75
2023/03/06 08:58:30;;;;;;;12.93;6.70;;;5.50;80.40;;;;;;5009010;28;20057;-77
2023/03/06 09:00:56;;;;;;;9.48;5.75;;;5.50;80.10;;;;;;5014716;28;20483;-76
2023/03/06 09:03:22;;;;;;;11.45;5.93;;;5.50;80.20;;;;;;5013320;28;20045;-75
2023/03/06 09:05:48;;;;;;;13.07;6.53;;;5.50;80.10;;;;;;5015076;28;20507;-76
2023/03/06 09:08:14;;;;;;;14.13;7.25;;;5.50;79.90;;;;;;5015269;28;20293;-76
2023/03/06 09:10:43;;;;;;;13.52;7.35;;;5.60;79.70;;;;;;5015639;28;20074;-75
2023/03/06 09:13:11;;;;;;;11.93;7.13;;;5.60;79.50;;;;;;5013830;28;20021;-77
2023/03/06 09:15:37;;;;;;;12.00;6.55;;;5.70;79.50;;;;;;5018494;28;20429;-77
2023/03/06 09:18:03;;;;;;;11.50;6.30;;;5.90;79.00;;;;;;5013168;28;20045;-75
2023/03/06 09:20:28;;;;;;;9.13;4.82;;;6.00;78.80;;;;;;5001836;28;20024;-76
2023/03/06 09:22:54;;;;;;;11.13;5.18;;;6.10;78.30;;;;;;4996312;28;20113;-75
2023/03/06 09:25:22;;;;;;;17.65;8.98;;;6.20;77.90;;;;;;4995419;28;20038;-76
2023/03/06 09:27:49;;;;;;;12.93;7.68;;;6.30;76.80;;;;;;4997831;28;20391;-76
2023/03/06 09:30:15;;;;;;;17.13;8.93;;;6.30;76.20;;;;;;5000942;28;20018;-76
2023/03/06 09:32:41;;;;;;;20.10;10.23;;;6.40;75.90;;;;;;5019706;28;20025;-77
2023/03/06 09:35:07;;;;;;;19.27;10.15;;;6.30;73.00;;;;;;5018020;28;20026;-76
2023/03/06 09:37:33;;;;;;;17.08;9.45;;;6.10;73.30;;;;;;5017339;28;20379;-77
2023/03/06 09:39:58;;;;;;;15.10;9.45;;;6.00;73.40;;;;;;5019619;28;20032;-77
2023/03/06 09:42:26;;;;;;;24.15;12.07;;;6.00;74.20;;;;;;5017127;28;20034;-77
2023/03/06 09:45:11;;;;;;;18.65;10.70;;;6.00;73.90;;;;;;5018867;28;20029;-76
2023/03/06 09:47:45;;;;;;;13.55;8.55;;;5.90;74.10;;;;;;5016445;28;20029;-76
2023/03/06 09:50:33;;;;;;;19.55;9.13;;;5.90;74.00;;;;;;5008133;28;20105;-77
2023/03/06 09:53:17;;;;;;;17.83;10.57;;;5.90;73.90;;;;;;5021080;28;20033;-77
2023/03/06 09:55:50;;;;;;;19.17;9.85;;;5.90;73.30;;;;;;5022390;28;20056;-76
2023/03/06 09:58:20;;;;;;;18.73;9.43;;;6.00;73.40;;;;;;5022490;28;20026;-77
2023/03/06 10:00:52;;;;;;;22.33;10.05;;;6.10;72.00;;;;;;5026740;28;20022;-76
2023/03/06 10:03:23;;;;;;;17.07;9.40;;;6.10;71.80;;;;;;5024425;28;20034;-74
2023/03/06 10:05:56;;;;;;;18.85;10.75;;;6.10;71.40;;;;;;5018069;28;20172;-77
2023/03/06 10:08:34;;;;;;;19.42;9.57;;;6.10;70.40;;;;;;5020613;28;20041;-77
2023/03/06 10:11:04;;;;;;;19.70;10.50;;;6.00;69.70;;;;;;5018880;28;20022;-76
2023/03/06 10:13:44;;;;;;;17.38;10.32;;;6.10;70.20;;;;;;5022593;28;20113;-76
2023/03/06 10:16:28;;;;;;;19.45;10.70;;;6.20;70.00;;;;;;5019288;28;20026;-77
2023/03/06 10:18:58;;;;;;;18.98;10.13;;;6.30;69.10;;;;;;5014710;28;20026;-77
2023/03/06 10:21:30;;;;;;;23.63;10.90;;;6.20;69.90;;;;;;5014905;28;20030;-76
2023/03/06 10:24:37;;;;;;;17.13;8.90;;;6.10;70.80;;;;;;5015028;28;20038;-78
2023/03/06 10:27:30;;;;;;;17.20;8.95;;;6.10;70.80;;;;;;5020037;28;20030;-77
2023/03/06 10:30:23;;;;;;;16.20;9.13;;;6.00;70.80;;;;;;5020982;28;20048;-77
2023/03/06 10:32:56;;;;;;;18.08;9.52;;;6.00;70.40;;;;;;5020579;28;20364;-76
2023/03/06 10:35:28;;;;;;;15.82;8.65;;;6.00;70.50;;;;;;5023874;28;20022;-77
2023/03/06 10:38:31;;;;;;;13.10;7.25;;;6.00;70.80;;;;;;5021564;28;20099;-77
2023/03/06 10:41:12;;;;;;;20.08;9.77;;;6.10;71.20;;;;;;5007698;28;20034;-77
2023/03/06 10:43:44;;;;;;;14.57;8.27;;;6.30;70.70;;;;;;5003719;28;20042;-79
2023/03/06 10:46:24;;;;;;;15.05;8.00;;;6.40;70.90;;;;;;5001165;28;20026;-77
2023/03/06 10:49:08;;;;;;;13.93;8.07;;;6.50;71.00;;;;;;5009966;28;20030;-78
2023/03/06 10:51:34;;;;;;;16.17;9.10;;;6.60;70.70;;;;;;4997644;28;20185;-75
2023/03/06 10:54:18;;;;;;;17.30;9.30;;;6.50;70.10;;;;;;5001174;28;20046;-77
2023/03/06 10:56:46;;;;;;;13.32;7.18;;;6.40;69.50;;;;;;5001852;28;20446;-76
2023/03/06 10:59:15;;;;;;;15.90;7.18;;;6.40;70.60;;;;;;5020105;28;20589;-77
2023/03/06 11:01:47;;;;;;;14.23;7.57;;;6.60;70.60;;;;;;5036981;28;20098;-76
2023/03/06 11:04:36;;;;;;;17.20;10.20;;;6.60;70.30;;;;;;5022944;28;20022;-78
2023/03/06 11:07:24;;;;;;;24.33;10.48;;;6.60;69.40;;;;;;5023713;28;20033;-76
2023/03/06 11:09:56;;;;;;;20.92;10.30;;;6.60;68.90;;;;;;5017487;28;20029;-77
2023/03/06 11:12:38;;;;;;;18.92;9.95;;;6.30;69.80;;;;;;5019844;28;20022;-76
2023/03/06 11:15:13;;;;;;;18.55;9.30;;;6.20;70.70;;;;;;5011309;28;20023;-76
2023/03/06 11:18:03;;;;;;;16.70;8.23;;;6.10;71.70;;;;;;5006919;28;20395;-75
2023/03/06 11:20:53;;;;;;;18.77;10.40;;;6.20;72.10;;;;;;5011632;28;20018;-76
2023/03/06 11:23:48;;;;;;;17.90;9.23;;;6.30;70.70;;;;;;5019057;28;20069;-74
2023/03/06 11:26:18;;;;;;;21.45;11.15;;;6.40;71.20;;;;;;5019558;28;20096;-76
2023/03/06 11:28:59;;;;;;;20.13;9.77;;;6.50;69.70;;;;;;5018474;28;20387;-76
2023/03/06 11:31:32;;;;;;;19.83;10.95;;;6.60;69.60;;;;;;5018610;28;20383;-76
2023/03/06 11:34:10;;;;;;;17.52;10.35;;;6.80;69.60;;;;;;5006291;28;20286;-77
2023/03/06 11:36:49;;;;;;;21.25;10.80;;;6.80;68.90;;;;;;4999550;28;20106;-76
2023/03/06 11:39:37;;;;;;;20.40;8.85;;;6.80;68.40;;;;;;4999948;28;20367;-76
2023/03/06 11:42:09;;;;;;;13.98;7.97;;;6.70;69.20;;;;;;5012616;28;20423;-76
2023/03/06 11:44:51;;;;;;;14.17;7.87;;;6.70;70.00;;;;;;4996979;28;20038;-76
2023/03/06 11:47:24;;;;;;;16.58;8.75;;;6.60;70.10;;;;;;5000695;28;20445;-77
2023/03/06 11:50:19;;;;;;;19.88;9.65;;;6.50;70.20;;;;;;5005356;28;20692;-77
2023/03/06 11:52:47;;;;;;;15.80;8.80;;;6.20;69.90;;;;;;5012249;28;20088;-76
2023/03/06 11:55:19;;;;;;;14.38;8.27;;;6.00;70.50;;;;;;5018938;28;20022;-76
2023/03/06 11:58:05;;;;;;;19.02;10.13;;;5.80;71.20;;;;;;5021211;28;20030;-77
2023/03/06 12:00:56;;;;;;;20.55;10.05;;;5.60;71.80;;;;;;5021951;28;20034;-76
2023/03/06 12:04:06;;;;;;;20.00;10.90;;;5.40;72.50;;;;;;5017414;28;20048;-77
2023/03/06 12:06:51;;;;;;;22.25;9.25;;;5.20;72.80;;;;;;5017690;28;20025;-76
2023/03/06 12:09:24;;;;;;;20.88;9.57;;;5.00;73.70;;;;;;5013997;23;20049;-76
2023/03/06 12:12:25;;;;;;;20.13;10.55;;;4.90;74.60;;;;;;5024960;28;20025;-77
2023/03/06 12:15:03;;;;;;;20.92;10.60;;;4.80;74.70;;;;;;5003939;28;20065;-77
2023/03/06 12:17:35;;;;;;;18.83;9.75;;;4.70;75.00;;;;;;5016429;28;20068;-76
2023/03/06 12:20:22;;;;;;;17.48;8.75;;;4.70;75.40;;;;;;5009334;28;20026;-76
2023/03/06 12:22:50;;;;;;;20.73;9.60;;;4.70;76.00;;;;;;5008762;28;20074;-76
2023/03/06 12:25:31;;;;;;;21.00;10.23;;;4.80;76.30;;;;;;5012584;28;20037;-77
2023/03/06 12:28:03;;;;;;;18.52;10.15;;;4.90;76.40;;;;;;4997265;28;20026;-77
2023/03/06 12:31:01;;;;;;;16.65;9.02;;;5.10;76.10;;;;;;4997639;28;20026;-77
2023/03/06 12:33:53;;;;;;;17.02;9.40;;;5.40;76.00;;;;;;4998828;28;20084;-77
2023/03/06 12:36:27;;;;;;;16.48;9.45;;;5.60;75.50;;;;;;4998080;28;20030;-76
2023/03/06 12:39:13;;;;;;;21.98;10.63;;;5.80;73.80;;;;;;4998401;28;20029;-77
2023/03/06 12:41:48;;;;;;;21.85;10.35;;;5.80;72.40;;;;;;5007166;28;20038;-77
2023/03/06 12:44:19;;;;;;;20.65;10.15;;;5.80;72.70;;;;;;4998788;28;20046;-76
2023/03/06 12:47:01;;;;;;;16.98;8.95;;;5.80;72.80;;;;;;5011020;28;20380;-76
2023/03/06 12:49:29;;;;;;;18.73;10.30;;;5.90;73.30;;;;;;5021826;28;20057;-76
2023/03/06 12:51:57;;;;;;;19.25;10.30;;;6.00;71.60;;;;;;5036499;28;20022;-77
2023/03/06 12:54:27;;;;;;;18.25;9.57;;;6.00;72.10;;;;;;5019660;28;20018;-77
2023/03/06 12:56:54;;;;;;;18.58;9.38;;;6.00;71.70;;;;;;5019736;28;20066;-78
2023/03/06 12:59:43;;;;;;;20.13;10.70;;;5.90;72.70;;;;;;5022566;28;20238;-75
2023/03/06 13:02:27;;;;;;;22.08;11.20;;;5.90;71.60;;;;;;5017506;28;20046;-76
2023/03/06 13:05:18;;;;;;;18.42;8.73;;;5.70;72.00;;;;;;5021523;28;20010;-76
2023/03/06 13:08:00;;;;;;;18.20;10.50;;;5.50;72.90;;;;;;5027740;28;20037;-76